Time;durP1;ratioP1;P1;durP2;ratioP2;P2;SDS_P1;SDS_P2;PMS_P1;PMS_P2;Temp;Humidity;BMP_temperature;BMP_pressure;BME280_temperature;BME280_humidity;BME280_pressure;Samples;Min_cycle;Max_cycle;Signal;HPM_P1;HPM_P2
2021/05/23 00:01:30;;;;;;;9.23;4.43;;;10.40;77.00;;;;;;5074947;28;20036;-74
2021/05/23 00:03:56;;;;;;;13.43;4.50;;;10.40;77.00;;;;;;5108061;28;20117;-74
2021/05/23 00:06:22;;;;;;;11.45;4.10;;;10.40;77.00;;;;;;5090314;28;20051;-75
2021/05/23 00:08:48;;;;;;;12.75;4.88;;;10.30;76.90;;;;;;5091073;28;20131;-74
2021/05/23 00:11:14;;;;;;;11.80;4.38;;;10.30;76.90;;;;;;5107776;28;20044;-74
2021/05/23 00:13:42;;;;;;;7.85;4.00;;;10.30;77.00;;;;;;5090225;28;20469;-74
2021/05/23 00:16:13;;;;;;;8.55;4.07;;;10.30;77.10;;;;;;5090243;28;20084;-74
2021/05/23 00:18:44;;;;;;;10.77;4.18;;;10.30;77.20;;;;;;5070781;28;20047;-74
2021/05/23 00:21:11;;;;;;;10.07;3.65;;;10.20;77.10;;;;;;5091249;28;20406;-74
2021/05/23 00:23:37;;;;;;;12.57;4.53;;;10.20;77.20;;;;;;5082669;28;20102;-74
2021/05/23 00:26:03;;;;;;;10.68;4.60;;;10.20;77.30;;;;;;5080181;28;20087;-74
2021/05/23 00:28:30;;;;;;;12.23;4.53;;;10.20;77.30;;;;;;5095194;28;20119;-76
2021/05/23 00:30:56;;;;;;;9.02;4.35;;;10.20;77.30;;;;;;5093686;28;20503;-75
2021/05/23 00:33:22;;;;;;;8.85;3.72;;;10.20;77.50;;;;;;5091828;28;20075;-75
2021/05/23 00:35:48;;;;;;;11.88;4.57;;;10.20;77.50;;;;;;5072890;28;20366;-75
2021/05/23 00:38:14;;;;;;;11.73;4.28;;;10.10;77.60;;;;;;5076960;28;20043;-75
2021/05/23 00:40:40;;;;;;;10.85;4.22;;;10.10;77.50;;;;;;5075067;28;20048;-75
2021/05/23 00:43:10;;;;;;;12.73;4.95;;;10.10;77.60;;;;;;5091398;28;20072;-75
2021/05/23 00:45:36;;;;;;;8.52;3.95;;;10.10;77.50;;;;;;5081606;28;20131;-75
2021/05/23 00:48:04;;;;;;;7.65;5.05;;;10.10;77.50;;;;;;5072844;28;20040;-75
2021/05/23 00:50:30;;;;;;;9.25;4.25;;;10.10;77.70;;;;;;5073150;28;20404;-75
2021/05/23 00:52:56;;;;;;;11.90;4.82;;;10.10;77.70;;;;;;5072449;28;20044;-75
2021/05/23 00:55:22;;;;;;;11.57;4.22;;;10.00;77.70;;;;;;5073001;28;20078;-75
2021/05/23 00:57:48;;;;;;;11.57;4.75;;;10.00;77.80;;;;;;5063565;28;20103;-76
2021/05/23 01:00:40;;;;;;;11.77;5.00;;;10.00;77.90;;;;;;5093065;28;20043;-75
2021/05/23 01:03:27;;;;;;;12.02;4.65;;;10.00;78.30;;;;;;5094276;28;20047;-75
2021/05/23 01:05:57;;;;;;;11.85;5.25;;;10.00;78.20;;;;;;5109697;28;20084;-75
2021/05/23 01:08:23;;;;;;;13.25;5.47;;;10.00;78.10;;;;;;5092982;28;20048;-75
2021/05/23 01:11:29;;;;;;;13.15;5.60;;;9.90;78.00;;;;;;5091909;28;20340;-75
2021/05/23 01:13:58;;;;;;;11.10;5.50;;;9.90;78.10;;;;;;5078697;28;20052;-74
2021/05/23 01:16:27;;;;;;;14.80;5.97;;;9.90;78.10;;;;;;5073728;28;20055;-74
2021/05/23 01:19:13;;;;;;;12.93;5.70;;;9.90;78.10;;;;;;5071764;28;20035;-75
2021/05/23 01:21:40;;;;;;;11.57;5.20;;;9.90;78.30;;;;;;5071570;28;20052;-75
2021/05/23 01:24:10;;;;;;;15.75;6.15;;;9.90;78.20;;;;;;5072381;28;20040;-75
2021/05/23 01:26:38;;;;;;;17.63;6.65;;;9.90;78.30;;;;;;5071561;28;20146;-76
2021/05/23 01:29:09;;;;;;;12.85;5.03;;;9.90;78.30;;;;;;5072517;28;20067;-75
2021/05/23 01:31:35;;;;;;;14.43;5.28;;;9.80;78.30;;;;;;5055680;28;20102;-76
2021/05/23 01:34:01;;;;;;;13.75;6.07;;;9.80;78.40;;;;;;5071742;28;20047;-75
2021/05/23 01:36:28;;;;;;;12.48;6.43;;;9.80;78.50;;;;;;5079212;28;20465;-75
2021/05/23 01:38:54;;;;;;;11.77;5.82;;;9.80;78.60;;;;;;5060237;28;20040;-75
2021/05/23 01:41:20;;;;;;;12.80;5.65;;;9.80;78.60;;;;;;5074529;28;20131;-75
2021/05/23 01:43:46;;;;;;;13.00;5.90;;;9.80;78.70;;;;;;5092617;28;20463;-75
2021/05/23 01:46:12;;;;;;;13.07;5.60;;;9.70;78.60;;;;;;5075522;28;20131;-75
2021/05/23 01:48:38;;;;;;;13.55;5.80;;;9.70;78.60;;;;;;5074710;28;20403;-76
2021/05/23 01:51:07;;;;;;;14.27;5.97;;;9.70;78.70;;;;;;5092126;28;20438;-75
2021/05/23 01:53:33;;;;;;;14.18;6.95;;;9.80;78.80;;;;;;5057973;28;20091;-75
2021/05/23 01:55:59;;;;;;;12.32;6.07;;;9.70;78.80;;;;;;5072480;28;20045;-75
2021/05/23 01:58:25;;;;;;;15.02;6.63;;;9.60;78.80;;;;;;5072706;28;20098;-75
2021/05/23 02:00:51;;;;;;;15.45;6.78;;;9.70;78.90;;;;;;5072265;28;20481;-76
2021/05/23 02:03:19;;;;;;;14.00;6.50;;;9.60;78.90;;;;;;5071939;28;20049;-75
2021/05/23 02:05:49;;;;;;;14.38;7.10;;;9.60;79.00;;;;;;5053987;28;20488;-76
2021/05/23 02:08:16;;;;;;;11.90;5.85;;;9.60;79.00;;;;;;5071560;28;20447;-75
2021/05/23 02:10:42;;;;;;;15.40;7.40;;;9.60;79.10;;;;;;5070544;28;20056;-75
2021/05/23 02:13:08;;;;;;;13.55;6.70;;;9.60;79.20;;;;;;5073074;28;20462;-75
2021/05/23 02:15:35;;;;;;;19.67;7.30;;;9.60;79.20;;;;;;5055183;28;20071;-75
2021/05/23 02:18:01;;;;;;;13.77;6.60;;;9.50;79.20;;;;;;5070952;28;20071;-75
2021/05/23 02:20:29;;;;;;;20.92;7.80;;;9.50;79.20;;;;;;5071618;28;20033;-75
2021/05/23 02:22:58;;;;;;;14.43;6.85;;;9.60;79.30;;;;;;5072172;28;20086;-74
2021/05/23 02:25:24;;;;;;;12.45;6.63;;;9.60;79.30;;;;;;5056013;28;20068;-75
2021/05/23 02:27:58;;;;;;;16.13;6.25;;;9.60;79.30;;;;;;5072986;28;20127;-75
2021/05/23 02:30:27;;;;;;;15.27;6.75;;;9.50;79.40;;;;;;5072320;28;20059;-75
2021/05/23 02:32:53;;;;;;;16.13;7.05;;;9.60;79.50;;;;;;5072280;28;20048;-75
2021/05/23 02:35:20;;;;;;;16.42;6.43;;;9.50;79.40;;;;;;5088979;28;20048;-74
2021/05/23 02:37:46;;;;;;;15.75;6.57;;;9.50;79.50;;;;;;5072608;28;20452;-76
2021/05/23 02:40:14;;;;;;;14.55;6.43;;;9.50;79.50;;;;;;5055641;28;20135;-75
2021/05/23 02:42:39;;;;;;;13.77;6.70;;;9.50;79.60;;;;;;5071016;28;20487;-75
2021/05/23 02:45:07;;;;;;;13.75;6.40;;;9.50;79.60;;;;;;5072302;28;20049;-74
2021/05/23 02:47:33;;;;;;;12.80;6.25;;;9.50;79.50;;;;;;5072974;28;20394;-74
2021/05/23 02:49:59;;;;;;;10.65;5.95;;;9.50;79.50;;;;;;5070737;28;20119;-74
2021/05/23 02:52:24;;;;;;;12.50;6.07;;;9.50;79.60;;;;;;5055097;28;20473;-74
2021/05/23 02:54:51;;;;;;;17.80;6.45;;;9.50;79.60;;;;;;5072574;28;20392;-75
2021/05/23 02:57:16;;;;;;;13.95;6.68;;;9.40;79.70;;;;;;5054718;28;20065;-75
2021/05/23 02:59:42;;;;;;;13.40;6.68;;;9.50;79.70;;;;;;5071710;28;20131;-74
2021/05/23 03:02:09;;;;;;;13.38;7.20;;;9.40;79.70;;;;;;5071910;28;20053;-75
2021/05/23 03:04:35;;;;;;;12.98;6.90;;;9.50;79.70;;;;;;5070911;28;20052;-74
2021/05/23 03:07:01;;;;;;;15.80;8.05;;;9.40;79.70;;;;;;5070025;28;20048;-74
2021/05/23 03:09:27;;;;;;;15.35;7.05;;;9.40;79.60;;;;;;5070996;28;20072;-74
2021/05/23 03:11:53;;;;;;;16.58;7.00;;;9.40;79.70;;;;;;5053796;28;20483;-74
2021/05/23 03:14:19;;;;;;;13.98;6.53;;;9.40;79.70;;;;;;5071291;28;20040;-74
2021/05/23 03:16:45;;;;;;;16.08;7.35;;;9.40;79.70;;;;;;5087818;28;20040;-73
2021/05/23 03:19:11;;;;;;;11.80;6.63;;;9.40;79.70;;;;;;5070696;28;20079;-74
2021/05/23 03:21:36;;;;;;;13.60;6.85;;;9.40;79.80;;;;;;5072084;28;20048;-73
2021/05/23 03:24:03;;;;;;;14.07;6.93;;;9.40;79.80;;;;;;5070632;28;20058;-74
2021/05/23 03:26:29;;;;;;;18.25;7.53;;;9.40;79.70;;;;;;5072462;28;20040;-73
2021/05/23 03:28:54;;;;;;;14.10;6.70;;;9.40;79.70;;;;;;5054393;28;20082;-75
2021/05/23 03:31:20;;;;;;;18.17;7.93;;;9.40;79.90;;;;;;5089685;28;20460;-74
2021/05/23 03:33:46;;;;;;;18.80;7.47;;;9.40;79.80;;;;;;5088928;28;20049;-74
2021/05/23 03:36:12;;;;;;;12.45;8.07;;;9.40;79.80;;;;;;5081632;28;20028;-74
2021/05/23 03:38:37;;;;;;;15.05;7.82;;;9.40;79.90;;;;;;5092030;28;20048;-74
2021/05/23 03:41:03;;;;;;;14.02;7.50;;;9.40;79.90;;;;;;5092389;28;20435;-74
2021/05/23 03:43:29;;;;;;;16.65;7.80;;;9.40;80.00;;;;;;5092353;28;20145;-74
2021/05/23 03:45:55;;;;;;;15.43;7.20;;;9.40;80.00;;;;;;5065254;28;20253;-74
2021/05/23 03:48:20;;;;;;;19.67;8.32;;;9.40;80.00;;;;;;5070821;28;20426;-74
2021/05/23 03:50:46;;;;;;;17.20;8.20;;;9.40;80.00;;;;;;5071278;28;20528;-74
2021/05/23 03:53:12;;;;;;;16.23;8.68;;;9.40;80.00;;;;;;5071379;28;20051;-74
2021/05/23 03:55:38;;;;;;;16.65;8.95;;;9.50;80.10;;;;;;5070921;28;20516;-74
2021/05/23 03:58:03;;;;;;;18.55;8.00;;;9.40;80.10;;;;;;5087426;28;20071;-74
2021/05/23 04:00:29;;;;;;;17.73;8.80;;;9.50;80.10;;;;;;5074411;28;20040;-74
2021/05/23 04:02:56;;;;;;;15.20;8.35;;;9.50;80.20;;;;;;5090969;28;20036;-75
2021/05/23 04:05:23;;;;;;;15.35;8.10;;;9.50;80.10;;;;;;5091127;28;20481;-75
2021/05/23 04:07:50;;;;;;;17.00;9.52;;;9.50;80.10;;;;;;5074878;28;20052;-73
2021/05/23 04:10:18;;;;;;;15.73;8.35;;;9.50;80.10;;;;;;5089842;28;20135;-74
2021/05/23 04:12:49;;;;;;;20.90;9.52;;;9.50;80.10;;;;;;5090708;28;20048;-72
2021/05/23 04:15:15;;;;;;;17.25;9.00;;;9.50;80.10;;;;;;5090072;28;20036;-74
2021/05/23 04:17:41;;;;;;;22.25;9.20;;;9.50;80.90;;;;;;5090949;28;20464;-75
2021/05/23 04:20:09;;;;;;;20.45;9.55;;;9.60;80.20;;;;;;5073758;28;20074;-74
2021/05/23 04:22:35;;;;;;;15.27;8.75;;;9.50;80.10;;;;;;5091463;28;20050;-75
2021/05/23 04:25:01;;;;;;;17.08;9.77;;;9.60;80.20;;;;;;5106913;28;20043;-76
2021/05/23 04:27:27;;;;;;;16.88;9.18;;;9.60;80.20;;;;;;5089560;28;20427;-74
2021/05/23 04:29:53;;;;;;;17.80;8.88;;;9.60;80.20;;;;;;5090540;28;20052;-74
2021/05/23 04:32:18;;;;;;;17.27;8.88;;;9.60;80.30;;;;;;5073138;28;20049;-74
2021/05/23 04:34:44;;;;;;;18.35;8.65;;;9.60;80.20;;;;;;5090357;28;20040;-73
2021/05/23 04:37:10;;;;;;;16.15;8.48;;;9.60;80.20;;;;;;5089826;28;20048;-74
2021/05/23 04:39:43;;;;;;;14.45;9.55;;;9.60;80.20;;;;;;5090217;28;20037;-74
2021/05/23 04:42:09;;;;;;;18.40;8.80;;;9.60;80.30;;;;;;5073145;28;20044;-74
2021/05/23 04:44:34;;;;;;;19.88;9.45;;;9.70;80.40;;;;;;5090347;28;20050;-73
2021/05/23 04:47:00;;;;;;;19.05;9.07;;;9.70;80.40;;;;;;5089532;28;20173;-76
2021/05/23 04:49:26;;;;;;;16.58;8.80;;;9.70;80.40;;;;;;5106407;28;20055;-74
2021/05/23 04:51:52;;;;;;;17.02;8.15;;;9.70;80.40;;;;;;5073467;28;20585;-74
2021/05/23 04:54:18;;;;;;;15.75;9.35;;;9.70;80.60;;;;;;5090826;28;20046;-74
2021/05/23 04:56:43;;;;;;;16.58;10.18;;;9.70;80.50;;;;;;5107225;28;20044;-74
2021/05/23 04:59:09;;;;;;;19.55;8.80;;;9.70;80.50;;;;;;5106302;28;20071;-75
2021/05/23 05:01:35;;;;;;;21.38;9.15;;;9.70;80.70;;;;;;5106272;28;20036;-76
2021/05/23 05:04:02;;;;;;;20.02;8.80;;;9.80;80.70;;;;;;5090515;28;20043;-76
2021/05/23 05:06:28;;;;;;;17.58;9.75;;;9.80;80.80;;;;;;5091300;28;20509;-74
2021/05/23 05:08:54;;;;;;;16.23;8.27;;;9.80;80.70;;;;;;5094035;28;20067;-75
2021/05/23 05:11:20;;;;;;;18.83;8.43;;;9.80;80.70;;;;;;5092107;28;20139;-75
2021/05/23 05:13:45;;;;;;;18.27;9.18;;;9.80;80.60;;;;;;5094070;28;20047;-75
2021/05/23 05:16:13;;;;;;;14.50;7.55;;;9.80;80.80;;;;;;5092709;28;20052;-75
2021/05/23 05:18:39;;;;;;;16.27;9.27;;;9.90;80.70;;;;;;5075693;28;20068;-74
2021/05/23 05:21:05;;;;;;;16.17;8.25;;;9.90;80.80;;;;;;5092626;28;20071;-76
2021/05/23 05:23:30;;;;;;;17.25;8.43;;;9.90;80.80;;;;;;5092679;28;20085;-75
2021/05/23 05:25:56;;;;;;;15.32;9.02;;;9.90;80.80;;;;;;5076057;28;20036;-75
2021/05/23 05:28:22;;;;;;;18.50;8.80;;;9.90;80.80;;;;;;5093018;28;20071;-75
2021/05/23 05:30:48;;;;;;;18.10;9.40;;;9.90;80.80;;;;;;5092908;28;20044;-75
2021/05/23 05:33:13;;;;;;;19.20;8.52;;;9.90;80.60;;;;;;5092091;28;20040;-75
2021/05/23 05:35:39;;;;;;;16.55;9.15;;;9.90;80.70;;;;;;5092307;28;20109;-74
2021/05/23 05:38:05;;;;;;;19.88;8.20;;;9.90;80.70;;;;;;5092488;28;20048;-75
2021/05/23 05:40:31;;;;;;;14.93;8.45;;;9.90;80.70;;;;;;5074949;28;20071;-75
2021/05/23 05:42:57;;;;;;;15.25;7.60;;;10.00;80.60;;;;;;5092297;28;20040;-75
2021/05/23 05:45:22;;;;;;;11.57;7.63;;;10.00;80.50;;;;;;5090830;28;20052;-75
2021/05/23 05:47:48;;;;;;;17.45;7.97;;;10.00;80.50;;;;;;5092117;28;20044;-75
2021/05/23 05:50:14;;;;;;;18.75;8.50;;;10.00;80.40;;;;;;5108829;28;20066;-75
2021/05/23 05:52:40;;;;;;;17.77;8.77;;;10.10;80.30;;;;;;5092048;28;20048;-74
2021/05/23 05:55:06;;;;;;;16.45;8.27;;;10.10;80.30;;;;;;5109208;28;20150;-74
2021/05/23 05:57:32;;;;;;;16.05;7.63;;;10.10;80.20;;;;;;5091463;28;20047;-74
2021/05/23 05:59:57;;;;;;;16.48;7.43;;;10.10;80.20;;;;;;5092920;28;20185;-75
2021/05/23 06:02:23;;;;;;;17.70;8.63;;;10.10;80.30;;;;;;5091309;28;20043;-75
2021/05/23 06:04:50;;;;;;;18.25;8.32;;;10.20;80.20;;;;;;5092135;28;20126;-75
2021/05/23 06:07:16;;;;;;;17.08;8.68;;;10.20;80.30;;;;;;5092463;28;20047;-75
2021/05/23 06:09:42;;;;;;;15.70;10.00;;;10.20;80.20;;;;;;5091591;28;20060;-74
2021/05/23 06:12:08;;;;;;;18.80;8.90;;;10.20;80.10;;;;;;5074885;28;20044;-74
2021/05/23 06:14:34;;;;;;;15.55;8.25;;;10.30;79.90;;;;;;5057381;28;20583;-74
2021/05/23 06:17:00;;;;;;;16.52;7.75;;;10.30;80.10;;;;;;5092859;28;20528;-74
2021/05/23 06:19:26;;;;;;;18.75;8.38;;;10.30;80.30;;;;;;5090222;28;20128;-75
2021/05/23 06:21:51;;;;;;;14.88;8.10;;;10.30;80.30;;;;;;5108431;28;20503;-76
2021/05/23 06:24:17;;;;;;;14.77;8.15;;;10.30;80.40;;;;;;5090763;28;20040;-74
2021/05/23 06:26:43;;;;;;;17.52;8.35;;;10.40;80.30;;;;;;5075310;28;20472;-75
2021/05/23 06:29:09;;;;;;;14.80;7.93;;;10.40;80.70;;;;;;5074566;28;20054;-75
2021/05/23 06:31:35;;;;;;;19.35;7.80;;;10.50;80.80;;;;;;5090758;28;20032;-75
2021/05/23 06:34:00;;;;;;;17.98;8.13;;;10.60;80.50;;;;;;5092484;28;20062;-76
2021/05/23 06:36:26;;;;;;;15.80;7.40;;;10.60;80.40;;;;;;5091975;28;20036;-75
2021/05/23 06:38:52;;;;;;;12.93;7.78;;;10.70;80.20;;;;;;5074649;28;20143;-75
2021/05/23 06:41:18;;;;;;;14.48;7.25;;;10.80;80.00;;;;;;5090527;28;20078;-76
2021/05/23 06:43:44;;;;;;;16.08;7.35;;;10.80;79.80;;;;;;5091293;28;20044;-75
2021/05/23 06:46:10;;;;;;;16.35;7.20;;;10.90;79.70;;;;;;5092583;28;20047;-74
2021/05/23 06:48:36;;;;;;;14.50;6.53;;;11.00;79.80;;;;;;5091366;28;20212;-75
2021/05/23 06:51:01;;;;;;;15.63;6.53;;;11.00;79.60;;;;;;5091004;28;20473;-75
2021/05/23 06:53:27;;;;;;;11.52;6.18;;;11.10;79.40;;;;;;5091670;28;20378;-75
2021/05/23 06:55:53;;;;;;;15.70;7.13;;;11.10;78.90;;;;;;5107915;28;20412;-75
2021/05/23 06:58:19;;;;;;;12.43;7.15;;;11.20;78.80;;;;;;5081011;28;20070;-75
2021/05/23 07:00:44;;;;;;;13.20;7.13;;;11.30;78.80;;;;;;5090601;28;20067;-75
2021/05/23 07:03:11;;;;;;;12.90;7.30;;;11.40;78.80;;;;;;5090179;28;20044;-75
2021/05/23 07:05:37;;;;;;;16.33;8.85;;;11.40;78.80;;;;;;5090477;28;20036;-75
2021/05/23 07:08:05;;;;;;;12.63;8.85;;;11.50;78.80;;;;;;5090091;28;20484;-75
2021/05/23 07:10:31;;;;;;;18.92;8.52;;;11.50;78.70;;;;;;5089831;28;20044;-74
2021/05/23 07:12:56;;;;;;;15.20;8.52;;;11.60;78.60;;;;;;5073471;28;20396;-74
2021/05/23 07:15:22;;;;;;;14.05;8.60;;;11.60;78.60;;;;;;5070895;28;20063;-74
2021/05/23 07:17:52;;;;;;;15.80;9.55;;;11.60;78.70;;;;;;5084522;28;20052;-74
2021/05/23 07:20:17;;;;;;;17.75;10.15;;;11.70;78.60;;;;;;5054120;28;20063;-74
2021/05/23 07:22:43;;;;;;;17.88;10.10;;;11.70;78.50;;;;;;5087162;28;20036;-74
2021/05/23 07:25:10;;;;;;;19.48;11.35;;;11.70;78.50;;;;;;5102310;28;20480;-74
2021/05/23 07:27:36;;;;;;;16.10;11.55;;;11.70;78.30;;;;;;5086073;28;20052;-74
2021/05/23 07:30:02;;;;;;;16.33;10.85;;;11.70;78.30;;;;;;5084727;28;20040;-74
2021/05/23 07:32:28;;;;;;;15.57;11.40;;;11.80;78.40;;;;;;5068658;28;20032;-73
2021/05/23 07:34:54;;;;;;;20.70;12.38;;;11.80;78.30;;;;;;5067515;28;20054;-73
2021/05/23 07:37:22;;;;;;;18.38;11.98;;;11.80;78.70;;;;;;5088393;28;20048;-73
2021/05/23 07:39:48;;;;;;;19.83;12.43;;;11.90;78.40;;;;;;5080043;28;20064;-73
2021/05/23 07:42:13;;;;;;;19.73;11.98;;;11.90;78.40;;;;;;5088066;28;20054;-73
2021/05/23 07:44:39;;;;;;;18.58;12.35;;;12.00;78.50;;;;;;5087244;28;20076;-73
2021/05/23 07:47:05;;;;;;;25.75;12.88;;;12.00;78.50;;;;;;5070108;28;20104;-73
2021/05/23 07:49:31;;;;;;;19.42;12.65;;;12.00;78.90;;;;;;5081651;28;20044;-73
2021/05/23 07:51:56;;;;;;;22.63;13.15;;;12.00;79.30;;;;;;5060168;28;20105;-73
2021/05/23 07:54:22;;;;;;;19.77;11.98;;;12.00;79.30;;;;;;5082076;28;20044;-72
2021/05/23 07:56:48;;;;;;;20.98;12.27;;;12.00;79.20;;;;;;5084448;28;20098;-73
2021/05/23 07:59:14;;;;;;;20.17;13.10;;;12.10;79.20;;;;;;5090194;28;20068;-71
2021/05/23 08:01:40;;;;;;;20.02;12.70;;;12.10;79.50;;;;;;5070053;28;20095;-72
2021/05/23 08:04:05;;;;;;;21.05;12.98;;;12.10;79.50;;;;;;5102626;28;20074;-71
2021/05/23 08:06:33;;;;;;;19.48;13.10;;;12.20;79.60;;;;;;5086449;28;20131;-71
2021/05/23 08:08:58;;;;;;;19.30;13.50;;;12.30;79.90;;;;;;5078912;28;20056;-72
2021/05/23 08:11:24;;;;;;;23.45;13.70;;;12.40;79.80;;;;;;5069900;28;20052;-71
2021/05/23 08:13:50;;;;;;;22.17;13.52;;;12.40;79.50;;;;;;5079924;28;20182;-74
2021/05/23 08:16:16;;;;;;;19.80;15.15;;;12.50;79.60;;;;;;5081511;28;20044;-74
2021/05/23 08:18:42;;;;;;;23.65;16.63;;;12.50;79.50;;;;;;5082436;28;20048;-75
2021/05/23 08:21:08;;;;;;;23.63;16.40;;;12.60;79.20;;;;;;5082981;28;20043;-74
2021/05/23 08:23:36;;;;;;;24.85;17.55;;;12.60;79.60;;;;;;5087222;28;20392;-75
2021/05/23 08:26:01;;;;;;;28.30;18.13;;;12.70;79.50;;;;;;5085320;28;20032;-74
2021/05/23 08:28:31;;;;;;;28.17;19.65;;;12.70;79.20;;;;;;5087382;28;20365;-74
2021/05/23 08:30:57;;;;;;;28.55;18.10;;;12.80;79.10;;;;;;5087661;28;20098;-74
2021/05/23 08:33:25;;;;;;;29.65;17.83;;;12.90;79.10;;;;;;5081648;28;20047;-75
2021/05/23 08:35:51;;;;;;;20.08;14.35;;;13.00;79.10;;;;;;5086363;28;20036;-81
2021/05/23 08:38:16;;;;;;;23.55;17.52;;;13.10;79.50;;;;;;5079935;28;20489;-79
2021/05/23 08:40:42;;;;;;;21.20;16.10;;;13.20;79.10;;;;;;5065838;28;20396;-82
2021/05/23 08:43:09;;;;;;;23.38;16.98;;;13.20;78.60;;;;;;5090227;28;20467;-82
2021/05/23 08:45:38;;;;;;;18.08;14.68;;;13.20;78.30;;;;;;5053258;28;20052;-82
2021/05/23 08:48:05;;;;;;;23.02;17.33;;;13.20;78.10;;;;;;5070972;28;20047;-81
2021/05/23 08:50:30;;;;;;;21.60;14.70;;;13.20;78.00;;;;;;5085035;28;20051;-86
2021/05/23 08:52:58;;;;;;;16.05;10.45;;;13.20;77.90;;;;;;5067730;28;20110;-84
2021/05/23 08:55:24;;;;;;;11.38;8.15;;;13.10;77.80;;;;;;5079700;28;20055;-85
2021/05/23 08:57:50;;;;;;;13.90;8.10;;;13.00;77.80;;;;;;5054502;28;20052;-85
2021/05/23 09:00:16;;;;;;;11.00;8.57;;;13.00;77.90;;;;;;5062893;28;20036;-87
2021/05/23 09:02:53;;;;;;;13.23;9.68;;;13.00;78.30;;;;;;5071620;28;20527;-87
2021/05/23 09:05:48;;;;;;;16.33;10.52;;;12.90;78.70;;;;;;5080668;28;20048;-87
2021/05/23 09:08:18;;;;;;;17.50;13.98;;;12.90;79.30;;;;;;5066084;28;20032;-87
2021/05/23 09:10:48;;;;;;;22.90;15.80;;;12.90;79.40;;;;;;5052293;28;20056;-87
2021/05/23 09:13:24;;;;;;;19.08;15.15;;;13.00;79.50;;;;;;5071729;28;20093;-82
2021/05/23 09:16:16;;;;;;;18.80;14.82;;;13.10;80.30;;;;;;5070211;28;20040;-85
2021/05/23 09:18:53;;;;;;;21.90;15.68;;;13.20;80.30;;;;;;5088533;28;20048;-83
2021/05/23 09:21:27;;;;;;;18.35;12.63;;;13.30;79.70;;;;;;5071022;28;20036;-83
2021/05/23 09:23:54;;;;;;;15.70;11.13;;;13.30;79.30;;;;;;5087471;28;20131;-84
2021/05/23 09:26:47;;;;;;;11.48;9.05;;;13.40;79.20;;;;;;5070162;28;20094;-85
2021/05/23 09:29:15;;;;;;;9.57;7.28;;;13.50;78.70;;;;;;5070092;28;20055;-85
2021/05/23 09:31:42;;;;;;;7.70;6.35;;;13.50;78.50;;;;;;5087148;28;20040;-84
2021/05/23 09:34:10;;;;;;;5.95;4.88;;;13.50;78.20;;;;;;5069656;28;20054;-82
2021/05/23 09:36:45;;;;;;;7.53;4.90;;;13.60;77.70;;;;;;5041605;28;20044;-80
2021/05/23 09:39:11;;;;;;;7.03;5.07;;;13.70;77.20;;;;;;5080372;28;20036;-80
2021/05/23 09:41:39;;;;;;;5.63;4.63;;;13.80;77.00;;;;;;5070137;28;20050;-81
2021/05/23 09:44:12;;;;;;;7.22;5.35;;;13.80;76.70;;;;;;5081158;28;20093;-80
2021/05/23 09:46:55;;;;;;;6.25;5.00;;;13.80;76.40;;;;;;5071699;28;20077;-80
2021/05/23 09:49:21;;;;;;;5.30;4.50;;;13.80;76.90;;;;;;5085775;28;20511;-80
2021/05/23 09:51:52;;;;;;;6.63;5.07;;;13.90;76.00;;;;;;5084275;28;20036;-86
2021/05/23 09:54:18;;;;;;;5.72;5.15;;;13.90;75.90;;;;;;5079401;28;20043;-80
2021/05/23 09:56:44;;;;;;;5.68;5.07;;;13.90;75.70;;;;;;5061600;28;20062;-79
2021/05/23 09:59:29;;;;;;;6.07;4.45;;;13.90;75.40;;;;;;5081630;28;20540;-79
2021/05/23 10:02:05;;;;;;;5.50;4.88;;;13.90;75.20;;;;;;5053807;28;20032;-78
2021/05/23 10:04:34;;;;;;;7.05;5.20;;;13.90;75.30;;;;;;5087948;28;20061;-74
2021/05/23 10:07:03;;;;;;;7.53;5.40;;;14.00;75.30;;;;;;5077540;28;20128;-77
2021/05/23 10:09:29;;;;;;;7.65;5.47;;;14.00;75.10;;;;;;5057506;28;20059;-81
2021/05/23 10:11:55;;;;;;;6.15;5.30;;;14.10;75.20;;;;;;5068367;28;20044;-83
2021/05/23 10:14:21;;;;;;;6.82;6.07;;;14.30;75.20;;;;;;5089553;28;20050;-82
2021/05/23 10:16:50;;;;;;;8.45;5.80;;;14.40;74.80;;;;;;5085485;28;20048;-81
2021/05/23 10:19:31;;;;;;;8.15;6.28;;;14.50;74.30;;;;;;5058565;28;20048;-78
2021/05/23 10:21:58;;;;;;;7.70;6.88;;;14.60;74.10;;;;;;5086002;28;20061;-75
2021/05/23 10:24:47;;;;;;;7.93;5.95;;;14.70;73.90;;;;;;5075584;28;20433;-80
2021/05/23 10:27:15;;;;;;;7.00;6.18;;;14.80;73.10;;;;;;5066233;28;20044;-77
2021/05/23 10:29:53;;;;;;;8.80;7.78;;;15.10;73.60;;;;;;5068747;28;20396;-79
2021/05/23 10:32:27;;;;;;;11.85;9.32;;;15.20;73.50;;;;;;5060513;28;20068;-77
2021/05/23 10:34:54;;;;;;;9.00;8.00;;;15.30;72.60;;;;;;5066443;28;20114;-81
2021/05/23 10:37:29;;;;;;;9.57;7.25;;;15.40;72.40;;;;;;5084950;28;20040;-73
2021/05/23 10:39:55;;;;;;;7.88;6.75;;;15.50;72.40;;;;;;5076880;28;20117;-81
2021/05/23 10:42:27;;;;;;;12.23;7.13;;;15.70;72.80;;;;;;5063894;28;20090;-80
2021/05/23 10:44:56;;;;;;;15.70;8.68;;;15.90;72.10;;;;;;5074033;28;20472;-78
2021/05/23 10:47:26;;;;;;;19.17;10.52;;;16.10;72.00;;;;;;5069041;28;20100;-81
2021/05/23 10:49:55;;;;;;;15.45;10.13;;;16.30;71.40;;;;;;5081236;28;20052;-81
2021/05/23 10:52:27;;;;;;;10.40;6.10;;;16.30;71.30;;;;;;5087551;28;20044;-79
2021/05/23 10:55:07;;;;;;;13.27;7.10;;;16.20;70.60;;;;;;5063622;28;20064;-81
2021/05/23 10:57:49;;;;;;;8.77;4.72;;;16.10;69.60;;;;;;5073779;28;20117;-80
2021/05/23 11:00:18;;;;;;;8.32;4.53;;;16.10;68.80;;;;;;5082426;28;20076;-80
2021/05/23 11:02:46;;;;;;;16.05;7.60;;;16.00;68.90;;;;;;5082610;28;20052;-79
2021/05/23 11:05:14;;;;;;;9.88;6.65;;;16.00;69.30;;;;;;5046085;28;20508;-80
2021/05/23 11:07:43;;;;;;;6.75;4.50;;;16.00;68.90;;;;;;5086175;28;20039;-80
2021/05/23 11:10:19;;;;;;;9.77;5.75;;;16.00;68.20;;;;;;5060104;28;20402;-81
2021/05/23 11:12:51;;;;;;;7.20;5.00;;;15.90;67.10;;;;;;5063554;28;20051;-80
2021/05/23 11:15:17;;;;;;;6.35;4.90;;;15.90;67.70;;;;;;5069990;28;20114;-83
2021/05/23 11:17:47;;;;;;;7.95;5.03;;;15.80;67.60;;;;;;5069843;28;20040;-81
2021/05/23 11:20:18;;;;;;;7.22;5.03;;;15.70;67.10;;;;;;5052345;28;20047;-81
2021/05/23 11:22:46;;;;;;;5.72;4.38;;;15.80;66.90;;;;;;5049865;28;20124;-80
2021/05/23 11:25:14;;;;;;;8.23;5.95;;;15.70;66.70;;;;;;5068791;28;20071;-85
2021/05/23 11:27:40;;;;;;;7.80;3.63;;;15.60;66.40;;;;;;5065314;28;20067;-80
2021/05/23 11:30:11;;;;;;;37.75;7.35;;;15.70;66.50;;;;;;5048980;28;20084;-79
2021/05/23 11:32:38;;;;;;;;;;;15.60;66.20;;;;;;5099127;28;20094;-75
2021/05/23 11:35:04;;;;;;;94.60;13.43;;;15.70;65.70;;;;;;5072253;28;20368;-82
2021/05/23 11:37:46;;;;;;;23.05;7.15;;;15.70;66.30;;;;;;5075983;28;20044;-78
2021/05/23 11:40:12;;;;;;;31.58;10.13;;;15.70;65.60;;;;;;5093492;28;20044;-82
2021/05/23 11:42:42;;;;;;;5.63;3.70;;;15.70;66.00;;;;;;5066298;28;20067;-78
2021/05/23 11:45:18;;;;;;;18.38;6.90;;;15.70;65.60;;;;;;5082457;28;20113;-79
2021/05/23 11:47:45;;;;;;;8.27;5.40;;;15.70;65.30;;;;;;5060771;28;20135;-81
2021/05/23 11:50:21;;;;;;;27.60;10.23;;;15.70;65.20;;;;;;5077986;28;20041;-83
2021/05/23 11:52:49;;;;;;;21.08;8.07;;;16.00;65.00;;;;;;5101989;28;20037;-83
2021/05/23 11:55:15;;;;;;;26.13;8.98;;;16.60;63.90;;;;;;5080075;28;20047;-75
2021/05/23 11:57:41;;;;;;;10.32;6.40;;;16.70;63.10;;;;;;5070144;28;20048;-77
2021/05/23 12:00:27;;;;;;;9.15;7.32;;;16.80;63.00;;;;;;5082344;28;20048;-85
2021/05/23 12:02:57;;;;;;;10.25;8.35;;;16.60;61.80;;;;;;5078487;28;20060;-83
2021/05/23 12:05:40;;;;;;;10.07;9.07;;;16.30;63.30;;;;;;5058299;28;20055;-84
2021/05/23 12:08:20;;;;;;;10.50;8.15;;;16.00;63.50;;;;;;5071020;28;20068;-83
2021/05/23 12:11:05;;;;;;;8.68;6.22;;;15.90;63.90;;;;;;5070517;28;20055;-81
2021/05/23 12:13:46;;;;;;;8.63;6.03;;;15.70;63.90;;;;;;5071845;28;20037;-83
2021/05/23 12:16:19;;;;;;;6.28;3.97;;;15.60;63.50;;;;;;5079502;28;20050;-84
2021/05/23 12:18:52;;;;;;;6.53;5.57;;;15.50;63.60;;;;;;5065690;28;20032;-84
2021/05/23 12:21:26;;;;;;;7.10;4.80;;;15.50;63.00;;;;;;5069083;28;20036;-83
2021/05/23 12:23:55;;;;;;;7.03;4.60;;;15.30;62.70;;;;;;5069002;28;20056;-81
2021/05/23 12:26:45;;;;;;;8.82;3.72;;;15.30;62.90;;;;;;5082023;28;20062;-84
2021/05/23 12:29:10;;;;;;;4.88;3.40;;;15.30;61.80;;;;;;5065966;28;20046;-86
2021/05/23 12:31:46;;;;;;;9.07;2.90;;;15.20;62.40;;;;;;5074863;28;20036;-82
2021/05/23 12:34:18;;;;;;;6.55;3.13;;;15.20;61.60;;;;;;5077403;28;20156;-81
2021/05/23 12:36:49;;;;;;;5.80;3.50;;;15.10;62.00;;;;;;5070263;28;20032;-82
2021/05/23 12:39:23;;;;;;;6.15;3.35;;;15.10;61.50;;;;;;5061285;28;20128;-82
2021/05/23 12:41:51;;;;;;;9.07;4.07;;;15.00;61.30;;;;;;5067987;28;20037;-83
2021/05/23 12:44:24;;;;;;;13.15;4.13;;;15.00;61.20;;;;;;5068636;28;20084;-81
2021/05/23 12:46:50;;;;;;;8.90;4.78;;;14.90;61.50;;;;;;5085519;28;20037;-80